Time;durP1;ratioP1;P1;durP2;ratioP2;P2;SDS_P1;SDS_P2;PMS_P1;PMS_P2;Temp;Humidity;BMP_temperature;BMP_pressure;BME280_temperature;BME280_humidity;BME280_pressure;Samples;Min_cycle;Max_cycle;Signal;HPM_P1;HPM_P2
2023/04/30 00:00:45;;;;;;;10.80;5.50;;;;;;;9.03;88.64;94332.22;5128932;28;20232;-74
2023/04/30 00:03:13;;;;;;;9.52;5.88;;;;;;;8.95;88.84;94334.97;5131193;27;20207;-75
2023/04/30 00:05:40;;;;;;;9.60;5.55;;;;;;;8.89;88.80;94331.63;5139287;27;20197;-75
2023/04/30 00:08:07;;;;;;;11.52;5.68;;;;;;;8.93;88.84;94337.19;5144024;27;20193;-75
2023/04/30 00:10:34;;;;;;;8.32;4.90;;;;;;;8.88;88.72;94330.06;5139476;27;20228;-75
2023/04/30 00:13:01;;;;;;;8.93;5.13;;;;;;;8.84;88.94;94329.91;5131534;27;20241;-75
2023/04/30 00:15:28;;;;;;;9.55;5.03;;;;;;;8.74;89.15;94332.97;5139068;27;20200;-75
2023/04/30 00:17:54;;;;;;;8.65;4.63;;;;;;;8.75;89.03;94331.84;5142468;27;20204;-74
2023/04/30 00:20:23;;;;;;;10.80;5.45;;;;;;;8.75;88.97;94331.03;5139633;27;20590;-74
2023/04/30 00:22:49;;;;;;;13.30;5.22;;;;;;;8.62;89.22;94337.44;5131535;27;20197;-74
2023/04/30 00:25:16;;;;;;;7.63;4.68;;;;;;;8.78;88.68;94331.19;5139286;27;20287;-74
2023/04/30 00:27:43;;;;;;;10.00;4.95;;;;;;;8.73;88.88;94327.91;5134729;27;20223;-74
2023/04/30 00:30:11;;;;;;;7.15;4.90;;;;;;;8.67;88.90;94326.47;5137459;27;20197;-74
2023/04/30 00:32:38;;;;;;;10.63;5.10;;;;;;;8.65;88.90;94323.31;5128457;28;20205;-74
2023/04/30 00:35:06;;;;;;;9.10;4.65;;;;;;;8.52;89.01;94328.59;5128467;28;20197;-74
2023/04/30 00:37:34;;;;;;;16.05;5.90;;;;;;;8.57;89.08;94330.31;5142120;27;20204;-74
2023/04/30 00:40:01;;;;;;;16.95;5.13;;;;;;;8.70;88.12;94331.25;5127935;28;20245;-74
2023/04/30 00:42:27;;;;;;;7.25;4.78;;;;;;;8.55;88.52;94338.75;5133666;27;20200;-75
2023/04/30 00:44:54;;;;;;;8.02;4.88;;;;;;;8.45;89.09;94322.91;5136986;27;20206;-75
2023/04/30 00:47:21;;;;;;;6.57;4.70;;;;;;;8.34;89.51;94321.63;5145697;27;20197;-74
2023/04/30 00:49:48;;;;;;;8.55;5.18;;;;;;;8.37;89.73;94315.59;5144337;27;20295;-76
2023/04/30 00:52:15;;;;;;;9.43;4.72;;;;;;;8.31;89.97;94326.88;5138518;27;20535;-74
2023/04/30 00:54:43;;;;;;;12.25;5.47;;;;;;;8.27;90.11;94329.41;5139515;27;20235;-74
2023/04/30 00:57:12;;;;;;;10.30;5.32;;;;;;;8.27;90.00;94326.72;5145780;27;20204;-74
2023/04/30 00:59:39;;;;;;;8.75;5.15;;;;;;;8.28;89.87;94325.59;5137064;27;20224;-74
2023/04/30 01:02:06;;;;;;;6.72;5.00;;;;;;;8.06;90.06;94315.78;5138904;27;20200;-74
2023/04/30 01:04:33;;;;;;;9.05;5.05;;;;;;;8.08;90.25;94329.75;5138258;27;20208;-73
2023/04/30 01:07:01;;;;;;;9.43;5.07;;;;;;;8.00;90.70;94327.06;5146833;27;20197;-74
2023/04/30 01:09:28;;;;;;;13.32;5.32;;;;;;;8.04;90.86;94323.41;5138590;27;20231;-75
2023/04/30 01:12:08;;;;;;;6.75;4.82;;;;;;;8.02;91.15;94332.94;5144806;27;20593;-75
2023/04/30 01:14:45;;;;;;;7.03;4.65;;;;;;;8.02;91.33;94330.22;5145912;27;20275;-74
2023/04/30 01:17:21;;;;;;;9.60;4.60;;;;;;;8.10;91.10;94324.03;5131873;27;20236;-75
2023/04/30 01:19:48;;;;;;;7.45;4.50;;;;;;;8.19;91.14;94324.81;5131289;27;20231;-75
2023/04/30 01:22:37;;;;;;;7.88;5.15;;;;;;;8.25;91.20;94328.13;5131122;27;20209;-74
2023/04/30 01:25:35;;;;;;;13.82;4.90;;;;;;;8.25;91.05;94328.13;5140537;27;20284;-74
2023/04/30 01:28:06;;;;;;;10.55;5.18;;;;;;;8.25;91.12;94326.22;5138772;27;20203;-74
2023/04/30 01:30:34;;;;;;;7.47;4.38;;;;;;;8.20;91.01;94327.19;5138235;27;20193;-75
2023/04/30 01:33:01;;;;;;;8.50;4.50;;;;;;;8.27;90.66;94320.50;5144051;27;20204;-75
2023/04/30 01:35:43;;;;;;;11.32;5.03;;;;;;;8.27;89.94;94324.00;5146706;27;20762;-75
2023/04/30 01:38:31;;;;;;;9.80;5.22;;;;;;;8.20;90.79;94326.38;5141434;27;20273;-75
2023/04/30 01:41:08;;;;;;;13.07;5.10;;;;;;;8.06;91.29;94325.78;5144219;27;20229;-75
2023/04/30 01:43:45;;;;;;;9.07;5.20;;;;;;;8.09;91.61;94325.94;5146014;27;20192;-74
2023/04/30 01:46:20;;;;;;;8.68;4.88;;;;;;;8.05;91.50;94324.22;5142195;27;20224;-75
2023/04/30 01:48:54;;;;;;;10.48;4.68;;;;;;;8.08;91.34;94328.94;5144835;27;20200;-74
2023/04/30 01:51:29;;;;;;;7.40;4.60;;;;;;;8.07;91.04;94327.34;5130993;27;20193;-75
2023/04/30 01:54:00;;;;;;;7.25;4.43;;;;;;;8.10;90.75;94322.13;5136775;27;20232;-74
2023/04/30 01:56:31;;;;;;;9.65;4.75;;;;;;;8.08;90.72;94329.75;5137534;27;20194;-76
2023/04/30 01:59:00;;;;;;;8.95;4.28;;;;;;;8.17;90.35;94325.16;5135303;27;20666;-75
2023/04/30 02:01:28;;;;;;;8.95;4.40;;;;;;;8.09;89.98;94325.13;5131944;27;20233;-75
2023/04/30 02:03:55;;;;;;;7.47;3.83;;;;;;;8.13;89.68;94329.59;5142801;27;20211;-74
2023/04/30 02:06:25;;;;;;;6.78;4.00;;;;;;;8.21;89.55;94322.56;5144761;27;20207;-74
2023/04/30 02:08:52;;;;;;;10.02;4.75;;;;;;;8.21;89.00;94322.56;5139614;27;20666;-74
2023/04/30 02:11:19;;;;;;;6.40;3.55;;;;;;;8.16;89.16;94322.75;5137717;27;20216;-74
2023/04/30 02:13:46;;;;;;;7.50;4.03;;;;;;;8.19;88.83;94325.63;5141870;27;20224;-74
2023/04/30 02:16:14;;;;;;;11.95;4.70;;;;;;;8.19;88.13;94314.03;5144504;27;20684;-74
2023/04/30 02:18:41;;;;;;;9.10;3.92;;;;;;;8.20;88.04;94329.09;5130432;27;20196;-75
2023/04/30 02:21:08;;;;;;;8.05;4.53;;;;;;;8.06;88.47;94331.94;5144131;27;20572;-74
2023/04/30 02:23:35;;;;;;;8.38;4.10;;;;;;;7.97;88.71;94323.09;5140485;27;20219;-75
2023/04/30 02:26:02;;;;;;;8.98;3.55;;;;;;;8.00;88.81;94324.34;5136942;27;20200;-74
2023/04/30 02:28:29;;;;;;;10.70;4.05;;;;;;;7.99;88.54;94312.78;5140760;27;20291;-74
2023/04/30 02:30:56;;;;;;;7.25;4.10;;;;;;;7.99;88.37;94317.38;5144393;27;20591;-76
2023/04/30 02:33:24;;;;;;;5.93;3.95;;;;;;;7.93;88.75;94324.03;5130250;27;20566;-74
2023/04/30 02:35:53;;;;;;;4.80;3.47;;;;;;;7.97;88.60;94322.28;5144044;27;20225;-75
2023/04/30 02:38:20;;;;;;;6.68;3.88;;;;;;;8.03;88.43;94324.53;5130019;27;20197;-75
2023/04/30 02:40:47;;;;;;;9.27;3.83;;;;;;;8.19;87.72;94324.81;5144272;27;20225;-74
2023/04/30 02:43:14;;;;;;;11.15;4.05;;;;;;;8.15;88.12;94324.66;5129970;27;20827;-75
2023/04/30 02:45:41;;;;;;;7.35;4.40;;;;;;;8.21;88.14;94327.97;5143894;27;20801;-74
2023/04/30 02:48:07;;;;;;;5.68;3.97;;;;;;;8.30;88.17;94323.38;5141037;27;20256;-75
2023/04/30 02:50:36;;;;;;;7.35;4.22;;;;;;;8.37;88.31;94321.00;5138126;27;20189;-75
2023/04/30 02:53:02;;;;;;;9.35;3.67;;;;;;;8.53;88.29;94329.38;5137507;27;20872;-74
2023/04/30 02:55:30;;;;;;;11.32;3.90;;;;;;;8.67;87.09;94329.97;5135545;27;20231;-74
2023/04/30 02:57:56;;;;;;;7.85;4.13;;;;;;;8.72;86.73;94326.31;5142155;27;20264;-74
2023/04/30 03:00:23;;;;;;;8.95;3.78;;;;;;;8.85;86.10;94330.72;5130426;27;20232;-75
2023/04/30 03:02:51;;;;;;;7.18;3.58;;;;;;;8.90;85.50;94330.53;5142883;27;20197;-75
2023/04/30 03:05:18;;;;;;;6.25;3.80;;;;;;;8.96;85.34;94326.53;5136376;27;20537;-74
2023/04/30 03:07:46;;;;;;;5.25;3.70;;;;;;;8.99;85.27;94325.09;5136613;27;20208;-75
2023/04/30 03:10:12;;;;;;;5.72;3.58;;;;;;;8.74;86.22;94334.91;5142207;27;20200;-74
2023/04/30 03:12:39;;;;;;;5.82;3.22;;;;;;;8.86;86.40;94326.91;5143019;27;20208;-74
2023/04/30 03:15:08;;;;;;;5.25;3.47;;;;;;;8.84;86.53;94329.13;5136861;27;20568;-74
2023/04/30 03:17:35;;;;;;;7.53;4.28;;;;;;;8.94;86.60;94339.56;5135912;27;20207;-74
2023/04/30 03:20:01;;;;;;;6.65;4.20;;;;;;;9.02;86.34;94343.38;5129545;27;20197;-74
2023/04/30 03:22:28;;;;;;;5.22;3.50;;;;;;;9.04;86.78;94339.19;5143411;27;20206;-74
2023/04/30 03:24:56;;;;;;;9.88;3.80;;;;;;;9.10;86.76;94343.31;5137362;27;20199;-74
2023/04/30 03:27:23;;;;;;;4.90;3.35;;;;;;;9.25;85.83;94345.47;5149290;27;20206;-74
2023/04/30 03:29:50;;;;;;;7.20;3.60;;;;;;;9.10;86.18;94337.91;5129254;27;20283;-74
2023/04/30 03:32:17;;;;;;;5.07;3.28;;;;;;;9.24;85.88;94338.47;5129913;27;20204;-74
2023/04/30 03:34:44;;;;;;;6.43;4.18;;;;;;;9.36;85.83;94345.09;5142069;27;20208;-74
2023/04/30 03:37:11;;;;;;;7.95;4.05;;;;;;;10.05;84.40;94339.22;5142914;27;20247;-74
2023/04/30 03:39:38;;;;;;;7.97;4.07;;;;;;;10.17;82.28;94337.34;5137252;27;20200;-74
2023/04/30 03:42:06;;;;;;;6.10;4.32;;;;;;;10.19;82.11;94350.59;5136093;27;20319;-74
2023/04/30 03:44:33;;;;;;;6.93;3.60;;;;;;;10.28;82.10;94352.09;5140495;27;20270;-74
2023/04/30 03:46:59;;;;;;;9.32;4.53;;;;;;;10.25;81.97;94354.69;5128820;28;20228;-74
2023/04/30 03:49:26;;;;;;;9.70;4.28;;;;;;;10.10;82.35;94357.97;5137986;27;20203;-74
2023/04/30 03:51:53;;;;;;;9.15;4.22;;;;;;;10.16;81.86;94362.03;5135697;27;20204;-74
2023/04/30 03:54:20;;;;;;;6.97;4.18;;;;;;;10.18;81.61;94359.81;5138766;27;20283;-75
2023/04/30 03:56:47;;;;;;;11.30;4.85;;;;;;;10.11;82.09;94362.28;5142739;27;20200;-74
2023/04/30 03:59:15;;;;;;;13.55;6.60;;;;;;;9.92;82.01;94368.91;5133896;27;20204;-74
2023/04/30 04:01:42;;;;;;;21.92;9.70;;;;;;;9.76;83.00;94359.81;5128632;28;20700;-74
2023/04/30 04:04:09;;;;;;;26.05;10.43;;;;;;;9.78;83.25;94368.38;5140014;27;20207;-74
2023/04/30 04:06:36;;;;;;;26.40;10.05;;;;;;;9.71;84.25;94373.50;5136052;27;20674;-74
2023/04/30 04:09:04;;;;;;;16.88;8.27;;;;;;;9.63;85.38;94364.34;5138263;27;20193;-74
2023/04/30 04:11:33;;;;;;;15.15;7.63;;;;;;;9.92;84.86;94374.34;5142312;27;20326;-75
2023/04/30 04:14:00;;;;;;;21.08;7.93;;;;;;;10.05;84.36;94369.00;5140253;27;20200;-74
2023/04/30 04:16:28;;;;;;;12.10;5.55;;;;;;;10.07;83.26;94370.25;5130580;27;20288;-75
2023/04/30 04:18:55;;;;;;;17.67;7.72;;;;;;;10.27;82.93;94363.25;5140760;27;20767;-74
2023/04/30 04:21:21;;;;;;;16.20;7.43;;;;;;;10.48;82.44;94369.44;5137142;27;20310;-74
2023/04/30 04:23:49;;;;;;;22.08;8.65;;;;;;;10.46;81.91;94366.28;5141374;27;20197;-75
2023/04/30 04:26:18;;;;;;;14.60;7.43;;;;;;;10.77;82.07;94375.88;5146782;27;20196;-75
2023/04/30 04:28:46;;;;;;;16.05;7.22;;;;;;;11.20;80.05;94370.75;5145494;27;20197;-75
2023/04/30 04:31:13;;;;;;;15.52;6.53;;;;;;;11.24;78.85;94368.94;5133002;27;20201;-74
2023/04/30 04:33:41;;;;;;;12.95;8.95;;;;;;;11.61;78.26;94372.47;5132015;27;20209;-75
2023/04/30 04:36:08;;;;;;;15.60;7.47;;;;;;;11.85;77.23;94377.09;5146287;27;20193;-74
2023/04/30 04:38:35;;;;;;;12.65;7.05;;;;;;;11.86;75.78;94378.69;5132445;27;20201;-75
2023/04/30 04:41:02;;;;;;;11.55;6.35;;;;;;;12.05;75.34;94380.78;5145584;27;20311;-74
2023/04/30 04:43:29;;;;;;;11.80;6.15;;;;;;;12.04;75.29;94380.00;5146104;27;20198;-74
2023/04/30 04:45:56;;;;;;;12.25;7.35;;;;;;;12.33;74.03;94387.06;5139845;27;20227;-75
2023/04/30 04:48:23;;;;;;;12.23;7.32;;;;;;;12.68;73.13;94379.13;5139492;27;20201;-75
2023/04/30 04:50:51;;;;;;;10.48;6.20;;;;;;;13.00;71.79;94381.91;5144679;27;20247;-74
2023/04/30 04:53:18;;;;;;;13.07;7.15;;;;;;;13.22;70.79;94378.63;5145849;27;20299;-74
2023/04/30 04:55:47;;;;;;;10.32;6.63;;;;;;;13.01;70.74;94388.91;5139659;27;20233;-73
2023/04/30 04:58:14;;;;;;;11.40;6.07;;;;;;;12.57;70.57;94386.19;5142260;27;20647;-74
2023/04/30 05:00:41;;;;;;;12.05;6.93;;;;;;;12.49;71.60;94400.72;5131919;27;20675;-76
2023/04/30 05:03:08;;;;;;;11.43;8.38;;;;;;;12.33;71.67;94391.69;5133823;27;20197;-74
2023/04/30 05:05:34;;;;;;;9.88;6.28;;;;;;;12.24;72.48;94400.00;5143547;27;20205;-74
2023/04/30 05:08:04;;;;;;;9.55;6.25;;;;;;;11.97;73.58;94390.66;5146123;27;20287;-75
2023/04/30 05:10:31;;;;;;;10.80;6.00;;;;;;;12.06;72.61;94391.31;5141405;27;20670;-75
2023/04/30 05:12:58;;;;;;;12.43;8.45;;;;;;;12.16;72.40;94394.69;5138710;27;20231;-75
2023/04/30 05:15:25;;;;;;;12.35;7.82;;;;;;;11.92;73.53;94399.03;5142390;27;20205;-74
2023/04/30 05:17:52;;;;;;;12.13;7.05;;;;;;;12.23;73.09;94397.63;5148350;27;20685;-73
2023/04/30 05:20:19;;;;;;;14.27;6.95;;;;;;;12.25;72.39;94396.13;5141630;27;20204;-74
2023/04/30 05:22:45;;;;;;;13.02;7.18;;;;;;;12.18;72.57;94400.56;5144477;27;20654;-73
2023/04/30 05:25:14;;;;;;;12.90;7.45;;;;;;;12.10;73.61;94397.63;5141247;27;20562;-72
2023/04/30 05:27:40;;;;;;;13.40;7.10;;;;;;;11.98;73.69;94397.66;5136499;27;20295;-73
2023/04/30 05:30:09;;;;;;;13.13;7.38;;;;;;;12.19;73.53;94394.78;5141354;27;20371;-73
2023/04/30 05:32:38;;;;;;;15.93;7.07;;;;;;;12.45;72.48;94391.66;5143921;27;20204;-74
2023/04/30 05:35:12;;;;;;;13.25;7.28;;;;;;;12.40;72.75;94392.72;5130766;27;20197;-73
2023/04/30 05:37:39;;;;;;;15.90;8.07;;;;;;;12.55;72.48;94393.91;5136795;27;20200;-76
2023/04/30 05:40:16;;;;;;;15.40;9.48;;;;;;;12.69;72.01;94398.94;5138809;27;20678;-75
2023/04/30 05:42:43;;;;;;;13.98;9.70;;;;;;;12.56;73.05;94394.69;5138313;27;20964;-75
2023/04/30 05:45:13;;;;;;;20.80;8.90;;;;;;;12.60;73.27;94401.00;5137446;27;20205;-76
2023/04/30 05:47:40;;;;;;;12.80;7.55;;;;;;;12.73;72.94;94389.72;5144154;27;20265;-73
2023/04/30 05:50:08;;;;;;;13.73;7.75;;;;;;;12.78;72.07;94391.41;5144430;27;20234;-73
2023/04/30 05:52:35;;;;;;;15.15;7.88;;;;;;;12.72;72.43;94393.59;5139956;27;20200;-74
2023/04/30 05:55:02;;;;;;;16.77;7.72;;;;;;;12.94;71.54;94389.53;5137292;27;20259;-74
2023/04/30 05:57:30;;;;;;;16.83;8.07;;;;;;;13.15;71.35;94390.09;5142801;27;20569;-75
2023/04/30 05:59:57;;;;;;;19.52;7.93;;;;;;;13.00;71.12;94384.63;5134906;27;20205;-75
2023/04/30 06:02:24;;;;;;;13.95;7.47;;;;;;;13.11;70.96;94391.16;5130549;27;20623;-76
2023/04/30 06:04:51;;;;;;;13.35;7.65;;;;;;;13.41;69.54;94392.31;5144143;27;20670;-75
2023/04/30 06:07:18;;;;;;;16.40;7.57;;;;;;;13.27;69.10;94400.13;5139293;27;20627;-74
2023/04/30 06:09:45;;;;;;;16.05;7.40;;;;;;;13.28;69.06;94403.63;5137065;27;20691;-75
2023/04/30 06:12:11;;;;;;;15.50;8.00;;;;;;;13.51;68.93;94383.66;5141288;27;20209;-75
2023/04/30 06:14:44;;;;;;;12.60;7.50;;;;;;;13.93;67.75;94385.00;5144744;27;20197;-74
2023/04/30 06:17:10;;;;;;;13.52;8.00;;;;;;;14.17;67.90;94393.72;5141875;27;20192;-75
2023/04/30 06:19:37;;;;;;;17.80;7.85;;;;;;;14.18;66.32;94398.03;5137129;27;20283;-75
2023/04/30 06:22:05;;;;;;;12.02;7.43;;;;;;;14.08;66.94;94403.22;5140082;27;20269;-75
2023/04/30 06:24:31;;;;;;;14.68;9.32;;;;;;;14.02;67.42;94400.00;5144051;27;20714;-74
2023/04/30 06:26:58;;;;;;;14.18;7.32;;;;;;;14.20;66.63;94406.66;5141963;27;20677;-74
2023/04/30 06:29:25;;;;;;;7.85;5.18;;;;;;;13.95;65.88;94378.03;5132593;27;20209;-75
2023/04/30 06:31:53;;;;;;;13.40;6.55;;;;;;;14.04;67.27;94402.38;5130209;27;20774;-75
2023/04/30 06:34:21;;;;;;;11.23;7.10;;;;;;;14.41;65.79;94391.94;5144200;27;20575;-75
2023/04/30 06:36:47;;;;;;;11.77;7.88;;;;;;;14.42;65.79;94396.22;5142848;27;20385;-75
2023/04/30 06:39:15;;;;;;;11.07;8.07;;;;;;;14.77;64.54;94399.69;5131768;27;20201;-75
2023/04/30 06:41:42;;;;;;;11.52;6.75;;;;;;;14.74;64.19;94407.81;5130379;27;20239;-76
2023/04/30 06:44:09;;;;;;;11.52;6.50;;;;;;;15.13;63.78;94409.34;5143838;27;20197;-80
2023/04/30 06:46:36;;;;;;;11.70;7.13;;;;;;;15.51;61.90;94396.75;5143237;27;20584;-76
2023/04/30 06:49:04;;;;;;;13.98;8.00;;;;;;;16.54;61.19;94401.06;5136469;27;20210;-73
2023/04/30 06:51:31;;;;;;;21.58;8.93;;;;;;;18.62;53.72;94390.56;5136303;27;20261;-73
2023/04/30 06:53:58;;;;;;;11.80;7.90;;;;;;;19.00;52.13;94391.88;5129452;27;20208;-74
2023/04/30 06:56:25;;;;;;;11.55;8.00;;;;;;;20.27;48.42;94379.50;5143413;27;20537;-73
2023/04/30 06:58:52;;;;;;;12.65;8.57;;;;;;;21.31;46.56;94382.78;5136724;27;20615;-74
2023/04/30 07:01:19;;;;;;;14.55;8.68;;;;;;;21.38;45.87;94385.47;5136118;27;20215;-72
2023/04/30 07:03:46;;;;;;;11.90;7.95;;;;;;;20.92;46.90;94386.44;5141945;27;20253;-74
2023/04/30 07:10:19;;;;;;;11.80;8.18;;;;;;;18.13;51.93;94354.59;5109699;22;20239;-94
2023/04/30 07:12:51;;;;;;;14.13;7.97;;;;;;;17.07;54.36;94365.41;5081281;28;20887;-93
2023/04/30 07:15:22;;;;;;;13.25;8.20;;;;;;;17.19;53.72;94365.13;5078092;28;20206;-94
2023/04/30 07:18:10;;;;;;;;;;;;;;;;;;;;;
2023/04/30 07:20:52;;;;;;;16.33;9.45;;;;;;;15.21;60.01;94378.31;5068182;28;20203;-95
2023/04/30 07:24:13;;;;;;;13.85;8.73;;;;;;;15.82;59.24;94412.91;5062954;28;20289;-95
2023/04/30 07:26:50;;;;;;;16.15;8.50;;;;;;;16.12;58.57;94396.59;5051620;28;20215;-94
2023/04/30 07:29:21;;;;;;;15.40;8.20;;;;;;;16.32;56.99;94359.78;5057219;28;20222;-94
2023/04/30 07:31:55;;;;;;;12.95;7.97;;;;;;;16.66;56.66;94390.72;5068851;28;20237;-92
2023/04/30 07:34:23;;;;;;;12.70;8.07;;;;;;;16.90;56.46;94366.78;5069667;28;20249;-92
2023/04/30 07:37:02;;;;;;;15.50;8.52;;;;;;;16.64;56.49;94375.84;5053735;28;20230;-94
2023/04/30 07:43:11;;;;;;;13.93;7.93;;;;;;;16.06;57.49;94410.94;5052887;28;20361;-92
2023/04/30 07:45:53;;;;;;;12.77;7.03;;;;;;;15.53;58.34;94381.59;5052596;28;20219;-91
2023/04/30 07:48:39;;;;;;;15.40;8.35;;;;;;;15.55;60.11;94408.56;5056196;28;20203;-94
2023/04/30 07:51:10;;;;;;;16.70;8.10;;;;;;;15.35;59.56;94405.06;5052217;28;20238;-94
2023/04/30 07:54:35;;;;;;;;;;;;;;;;;;;;;
2023/04/30 07:57:08;;;;;;;13.13;7.28;;;;;;;15.10;60.05;94388.25;5010114;28;20221;-93
2023/04/30 08:00:13;;;;;;;13.80;7.22;;;;;;;15.19;59.51;94377.88;5063230;28;20206;-93
2023/04/30 08:02:42;;;;;;;10.95;6.65;;;;;;;15.99;58.71;94422.53;5052114;22;20234;-78
2023/04/30 08:05:11;;;;;;;11.02;6.43;;;;;;;16.47;57.17;94411.91;5055617;28;20293;-78
2023/04/30 08:07:38;;;;;;;12.20;6.78;;;;;;;17.15;56.09;94414.34;5056235;28;20567;-81
2023/04/30 08:10:06;;;;;;;13.13;6.47;;;;;;;17.72;54.76;94407.53;5051132;28;20208;-77
2023/04/30 08:12:36;;;;;;;10.27;5.43;;;;;;;17.77;54.13;94418.13;5055052;28;20199;-76
2023/04/30 08:15:06;;;;;;;10.52;6.10;;;;;;;17.63;53.88;94412.53;5059695;28;20204;-79
2023/04/30 08:17:33;;;;;;;7.35;4.45;;;;;;;17.50;53.64;94413.94;5065360;28;20206;-83
2023/04/30 08:20:00;;;;;;;8.73;4.55;;;;;;;17.50;53.56;94415.88;5060009;28;20597;-82
2023/04/30 08:22:27;;;;;;;7.75;4.82;;;;;;;17.37;54.00;94412.63;5059931;28;20223;-80
2023/04/30 08:25:01;;;;;;;8.32;4.05;;;;;;;16.85;54.89;94419.88;5063951;28;20211;-77
2023/04/30 08:27:31;;;;;;;6.20;3.47;;;;;;;16.87;55.40;94417.56;5065340;28;20251;-80
2023/04/30 08:29:58;;;;;;;6.03;3.33;;;;;;;17.25;54.76;94415.63;5059927;28;20203;-77
2023/04/30 08:32:26;;;;;;;6.95;3.70;;;;;;;17.45;53.50;94419.78;5053203;28;20196;-79
2023/04/30 08:34:54;;;;;;;6.25;3.88;;;;;;;17.50;54.53;94422.16;5049566;28;20199;-78
2023/04/30 08:37:21;;;;;;;5.63;3.85;;;;;;;17.70;53.12;94418.09;5052926;28;20297;-78
2023/04/30 08:39:48;;;;;;;6.63;3.95;;;;;;;17.45;54.13;94430.72;5060609;28;20207;-77
2023/04/30 08:42:19;;;;;;;7.20;3.50;;;;;;;16.92;55.29;94413.72;5052462;28;20225;-78
2023/04/30 08:44:47;;;;;;;5.53;3.80;;;;;;;16.67;54.28;94418.88;5051317;28;20277;-77
2023/04/30 08:47:14;;;;;;;6.53;3.10;;;;;;;16.61;53.95;94414.84;5059008;28;20228;-78
2023/04/30 08:49:43;;;;;;;5.82;3.40;;;;;;;16.84;54.50;94407.34;5053522;28;20211;-75
2023/04/30 08:52:10;;;;;;;5.93;3.70;;;;;;;17.32;52.78;94411.03;5050112;28;20208;-74
2023/04/30 08:54:37;;;;;;;6.13;3.60;;;;;;;17.24;52.63;94409.38;5043345;28;20258;-75
2023/04/30 08:57:06;;;;;;;4.60;3.30;;;;;;;17.64;52.19;94408.63;5063136;28;20729;-76
2023/04/30 08:59:33;;;;;;;6.32;3.30;;;;;;;18.38;52.44;94394.72;5048798;28;20191;-77
2023/04/30 09:02:00;;;;;;;7.45;3.55;;;;;;;18.94;48.94;94390.69;5049698;28;20231;-75
2023/04/30 09:04:27;;;;;;;5.18;3.38;;;;;;;18.59;48.60;94382.28;5061057;28;20306;-77
2023/04/30 09:06:58;;;;;;;9.70;3.47;;;;;;;18.62;49.75;94381.53;5044998;28;20781;-76
2023/04/30 09:09:29;;;;;;;4.80;3.05;;;;;;;19.05;47.53;94382.50;5049961;28;20219;-76
2023/04/30 09:12:12;;;;;;;5.32;3.22;;;;;;;19.14;47.92;94375.47;5052427;28;20212;-74
2023/04/30 09:14:39;;;;;;;4.30;3.10;;;;;;;19.55;45.52;94372.44;5051398;28;20293;-73
2023/04/30 09:17:07;;;;;;;4.07;2.80;;;;;;;19.12;45.86;94377.03;5052513;28;20827;-75
2023/04/30 09:19:34;;;;;;;5.07;3.10;;;;;;;19.19;46.97;94371.56;5052650;28;20207;-75
2023/04/30 09:22:19;;;;;;;3.50;3.10;;;;;;;19.57;45.83;94363.81;5045765;28;20200;-73
2023/04/30 09:24:48;;;;;;;3.47;2.90;;;;;;;19.62;45.69;94366.16;5047965;28;20207;-74
2023/04/30 09:27:17;;;;;;;3.92;3.33;;;;;;;19.34;46.04;94366.88;5063793;28;20200;-77
2023/04/30 09:29:45;;;;;;;7.47;3.30;;;;;;;19.63;46.18;94352.03;5049933;28;20215;-75
2023/04/30 09:32:12;;;;;;;4.57;3.03;;;;;;;20.50;44.58;94338.59;5063379;28;20210;-76
2023/04/30 09:34:39;;;;;;;4.43;3.00;;;;;;;20.41;44.77;94346.50;5049110;28;20212;-77
2023/04/30 09:37:06;;;;;;;3.50;3.05;;;;;;;20.15;43.18;94344.94;5047611;28;20261;-79
2023/04/30 09:39:46;;;;;;;4.00;3.00;;;;;;;19.84;44.06;94340.25;5049083;28;20287;-78
2023/04/30 09:42:14;;;;;;;4.72;3.25;;;;;;;19.20;45.83;94344.88;5042536;28;20356;-77
2023/04/30 09:44:42;;;;;;;5.35;3.25;;;;;;;20.05;45.16;94336.72;5048984;28;20208;-77
2023/04/30 09:47:12;;;;;;;3.80;2.80;;;;;;;20.43;43.65;94327.63;5062492;28;20207;-78
2023/04/30 09:49:42;;;;;;;3.33;2.95;;;;;;;21.10;42.10;94326.56;5060606;28;20405;-77
2023/04/30 09:52:09;;;;;;;3.80;2.60;;;;;;;21.42;41.70;94331.91;5051235;28;20763;-77
2023/04/30 09:54:38;;;;;;;4.97;2.90;;;;;;;21.21;41.71;94326.50;5060596;28;20615;-80
2023/04/30 09:57:08;;;;;;;3.17;2.70;;;;;;;20.58;42.43;94333.88;5055819;28;20653;-75
2023/04/30 09:59:38;;;;;;;4.45;3.38;;;;;;;20.70;42.80;94327.13;5055331;28;20223;-76
2023/04/30 10:02:06;;;;;;;4.03;3.20;;;;;;;20.74;43.26;94319.66;5041537;28;20658;-77
2023/04/30 10:04:36;;;;;;;3.22;2.63;;;;;;;19.55;43.48;94328.47;5068231;28;20804;-80
2023/04/30 10:07:06;;;;;;;3.95;2.55;;;;;;;20.35;42.47;94320.56;5055625;28;20309;-77
2023/04/30 10:09:40;;;;;;;3.60;2.88;;;;;;;20.65;42.55;94313.78;5052124;28;20658;-78
2023/04/30 10:12:12;;;;;;;2.08;1.88;;;;;;;19.04;43.29;94321.31;5058452;28;20317;-78
2023/04/30 10:14:39;;;;;;;2.90;2.55;;;;;;;19.07;44.41;94320.53;5055248;28;20203;-77
2023/04/30 10:17:11;;;;;;;3.25;2.25;;;;;;;19.38;43.21;94321.00;5058611;28;20575;-80
2023/04/30 10:19:41;;;;;;;7.57;2.70;;;;;;;19.51;44.31;94311.22;5061366;28;20229;-76
2023/04/30 10:22:10;;;;;;;6.10;3.20;;;;;;;19.85;43.85;94309.63;5048480;28;20212;-78
2023/04/30 10:24:39;;;;;;;3.75;3.17;;;;;;;19.36;45.11;94315.09;5048452;28;20207;-74
2023/04/30 10:27:06;;;;;;;4.25;2.92;;;;;;;18.72;46.19;94331.41;5060617;28;20561;-74
2023/04/30 10:29:34;;;;;;;3.90;3.08;;;;;;;18.22;47.96;94322.91;5054749;28;20199;-75
2023/04/30 10:32:03;;;;;;;6.00;2.50;;;;;;;17.64;50.22;94355.78;5055852;28;20210;-74
2023/04/30 10:34:41;;;;;;;8.88;3.60;;;;;;;15.97;57.71;94359.28;5047062;28;20210;-79
2023/04/30 10:37:17;;;;;;;6.55;2.90;;;;;;;14.67;64.29;94381.16;5063341;28;20207;-76
2023/04/30 10:39:46;;;;;;;8.10;4.60;;;;;;;14.28;67.45;94393.97;5048471;28;20203;-78
2023/04/30 10:42:13;;;;;;;7.13;3.72;;;;;;;13.26;76.16;94428.47;5052650;28;20452;-79
2023/04/30 10:44:40;;;;;;;6.63;3.60;;;;;;;12.89;74.86;94414.25;5057944;28;20226;-76
2023/04/30 10:47:07;;;;;;;6.55;2.92;;;;;;;13.06;75.82;94402.28;5061284;28;20196;-75
2023/04/30 10:49:34;;;;;;;7.80;3.60;;;;;;;13.55;81.06;94382.91;5058553;28;20203;-76
2023/04/30 10:52:02;;;;;;;5.72;3.90;;;;;;;13.91;75.43;94382.63;5049599;28;20302;-77
2023/04/30 10:54:31;;;;;;;4.25;2.75;;;;;;;14.64;74.35;94376.44;5058746;28;20207;-77
2023/04/30 10:57:14;;;;;;;13.10;3.65;;;;;;;15.60;80.74;94370.81;5054389;28;20206;-76
2023/04/30 10:59:46;;;;;;;6.00;4.43;;;;;;;16.22;78.33;94365.91;5054898;28;20326;-78
2023/04/30 11:02:16;;;;;;;9.27;4.38;;;;;;;16.87;76.40;94360.09;5054028;28;20342;-77
2023/04/30 11:05:12;;;;;;;5.03;4.03;;;;;;;17.74;69.95;94355.88;5040583;28;20238;-78
2023/04/30 11:07:48;;;;;;;4.00;3.60;;;;;;;18.21;69.89;94350.72;5040573;28;20196;-77
2023/04/30 11:10:15;;;;;;;4.75;3.78;;;;;;;18.96;68.59;94347.19;5015668;28;20218;-81
2023/04/30 11:12:50;;;;;;;7.30;4.18;;;;;;;19.67;66.41;94341.06;5028665;28;20207;-80
2023/04/30 11:15:19;;;;;;;8.20;3.95;;;;;;;19.78;61.89;94342.63;5048060;28;20209;-81
2023/04/30 11:17:48;;;;;;;4.60;3.60;;;;;;;19.65;58.01;94337.91;5032242;28;20201;-79
2023/04/30 11:20:20;;;;;;;5.65;3.53;;;;;;;20.21;59.33;94337.09;5037359;28;20731;-78
2023/04/30 11:22:47;;;;;;;4.43;3.95;;;;;;;20.55;56.26;94343.69;5044318;28;20294;-77
2023/04/30 11:25:19;;;;;;;3.85;3.47;;;;;;;20.79;57.38;94333.00;5027967;28;20624;-77
2023/04/30 11:27:46;;;;;;;5.43;3.67;;;;;;;20.55;55.00;94334.66;5027783;28;20303;-77
2023/04/30 11:30:16;;;;;;;4.25;3.30;;;;;;;20.50;55.26;94341.34;5024152;28;20205;-78
2023/04/30 11:32:46;;;;;;;4.80;3.70;;;;;;;20.73;55.35;94324.38;5023748;28;20211;-78
2023/04/30 11:35:14;;;;;;;6.18;3.72;;;;;;;20.84;54.80;94338.09;5047376;28;20200;-77
2023/04/30 11:37:43;;;;;;;5.22;3.70;;;;;;;21.06;55.00;94325.78;5034335;28;20333;-78
2023/04/30 11:40:11;;;;;;;4.45;3.50;;;;;;;21.51;52.05;94323.97;5033965;28;20204;-77
2023/04/30 11:42:39;;;;;;;3.83;3.20;;;;;;;21.36;49.74;94327.22;5007829;28;20201;-77
2023/04/30 11:45:08;;;;;;;3.63;2.70;;;;;;;20.30;45.36;94325.66;5027101;28;20209;-77
2023/04/30 11:47:45;;;;;;;6.50;3.10;;;;;;;19.93;48.35;94328.88;5035487;28;20249;-79
2023/04/30 11:50:13;;;;;;;5.28;2.47;;;;;;;18.67;53.31;94331.78;5031428;28;20204;-76
2023/04/30 11:52:41;;;;;;;5.10;2.67;;;;;;;18.42;52.13;94337.13;5036740;28;20199;-76